Time;durP1;ratioP1;P1;durP2;ratioP2;P2;SDS_P1;SDS_P2;PMS_P1;PMS_P2;Temp;Humidity;BMP_temperature;BMP_pressure;BME280_temperature;BME280_humidity;BME280_pressure;Samples;Min_cycle;Max_cycle;Signal;HPM_P1;HPM_P2
2022/08/20 00:01:23;;;;;;;;;;;22.00;99.90;;;;;;5097236;28;20052;-71
2022/08/20 00:03:49;;;;;;;1.30;0.90;;;22.00;99.90;;;;;;5094857;28;19955;-70
2022/08/20 00:06:18;;;;;;;3.95;0.85;;;21.90;99.90;;;;;;5094933;28;20028;-70
2022/08/20 00:08:45;;;;;;;1.30;0.90;;;22.00;99.90;;;;;;5094880;28;20070;-70
2022/08/20 00:11:13;;;;;;;2.65;1.10;;;21.90;99.90;;;;;;5093367;28;20024;-71
2022/08/20 00:13:42;;;;;;;2.38;0.95;;;22.00;99.90;;;;;;5093517;28;20024;-71
2022/08/20 00:16:10;;;;;;;2.63;1.00;;;22.00;99.90;;;;;;5094697;28;20097;-70
2022/08/20 00:18:36;;;;;;;1.70;1.05;;;22.00;99.90;;;;;;5092692;28;20058;-70
2022/08/20 00:21:04;;;;;;;1.70;1.00;;;22.00;99.90;;;;;;5092899;28;20408;-71
2022/08/20 00:23:29;;;;;;;1.33;1.00;;;22.00;99.90;;;;;;5093106;28;20524;-71
2022/08/20 00:25:55;;;;;;;3.95;1.15;;;22.00;99.90;;;;;;5093924;28;20047;-71
2022/08/20 00:28:21;;;;;;;0.80;0.65;;;22.00;99.90;;;;;;5093713;28;20370;-70
2022/08/20 00:30:47;;;;;;;1.10;0.85;;;21.90;99.90;;;;;;5093713;28;20024;-70
2022/08/20 00:33:14;;;;;;;;;;;21.90;99.90;;;;;;5094278;28;20028;-70
2022/08/20 00:35:43;;;;;;;3.00;1.20;;;22.00;99.90;;;;;;5092648;28;20383;-70
2022/08/20 00:38:09;;;;;;;1.17;0.98;;;22.00;99.90;;;;;;5093359;28;20032;-70
2022/08/20 00:40:37;;;;;;;;;;;22.00;99.90;;;;;;5094276;28;20036;-71
2022/08/20 00:43:05;;;;;;;1.30;1.00;;;22.10;99.90;;;;;;5092334;28;20260;-70
2022/08/20 00:45:33;;;;;;;2.50;1.10;;;22.00;99.90;;;;;;5093427;28;20023;-71
2022/08/20 00:47:59;;;;;;;1.25;1.15;;;22.00;99.90;;;;;;5094678;28;20097;-70
2022/08/20 00:50:35;;;;;;;1.38;1.13;;;22.00;99.90;;;;;;5093333;28;20089;-70
2022/08/20 00:53:02;;;;;;;3.47;1.20;;;22.00;99.90;;;;;;5093090;28;20044;-70
2022/08/20 00:55:29;;;;;;;1.30;1.20;;;22.00;99.90;;;;;;5092810;28;20021;-71
2022/08/20 00:57:59;;;;;;;2.30;1.23;;;22.00;99.90;;;;;;5092485;28;20036;-71
2022/08/20 01:00:30;;;;;;;1.58;1.10;;;22.00;99.90;;;;;;5093190;28;20165;-70
2022/08/20 01:02:59;;;;;;;1.48;1.38;;;22.00;99.90;;;;;;5091671;28;20054;-70
2022/08/20 01:05:25;;;;;;;2.47;1.23;;;22.00;99.90;;;;;;5091909;28;20020;-71
2022/08/20 01:07:52;;;;;;;;;;;22.00;99.90;;;;;;5093397;28;20035;-71
2022/08/20 01:10:30;;;;;;;2.70;1.08;;;22.00;99.90;;;;;;5093172;28;20283;-70
2022/08/20 01:12:57;;;;;;;1.98;1.15;;;22.00;99.90;;;;;;5094345;28;20036;-71
2022/08/20 01:15:25;;;;;;;3.42;1.23;;;22.10;99.90;;;;;;5091730;28;20028;-71
2022/08/20 01:17:56;;;;;;;2.33;1.30;;;22.10;99.90;;;;;;5094449;28;20093;-71
2022/08/20 01:20:26;;;;;;;2.65;1.40;;;22.00;99.90;;;;;;5094496;28;20112;-71
2022/08/20 01:25:49;;;;;;;3.05;1.77;;;22.10;99.90;;;;;;5094379;28;20086;-70
2022/08/20 01:28:21;;;;;;;2.28;1.52;;;22.10;99.90;;;;;;5092790;28;20284;-70
2022/08/20 01:30:47;;;;;;;1.50;1.30;;;22.10;99.90;;;;;;5093398;28;20017;-70
2022/08/20 01:33:12;;;;;;;1.63;1.50;;;22.10;99.90;;;;;;5093707;28;20103;-70
2022/08/20 01:35:40;;;;;;;2.33;1.40;;;22.00;99.90;;;;;;5092209;28;20073;-70
2022/08/20 01:38:07;;;;;;;1.67;1.27;;;22.10;99.90;;;;;;5093323;28;20020;-70
2022/08/20 01:41:11;;;;;;;2.70;1.40;;;22.10;99.90;;;;;;5093139;28;20487;-70
2022/08/20 01:43:39;;;;;;;2.50;1.35;;;22.10;99.90;;;;;;5069328;28;20097;-71
2022/08/20 01:46:04;;;;;;;4.45;1.48;;;22.10;99.90;;;;;;5091934;28;20073;-71
2022/08/20 01:48:30;;;;;;;2.13;1.70;;;22.20;99.90;;;;;;5091878;28;20373;-71
2022/08/20 01:51:06;;;;;;;3.15;1.52;;;22.20;99.90;;;;;;5092786;28;20535;-71
2022/08/20 01:53:38;;;;;;;4.00;1.83;;;22.30;99.90;;;;;;5092749;28;20382;-71
2022/08/20 01:56:06;;;;;;;2.60;1.73;;;22.20;99.90;;;;;;5091294;28;20020;-71
2022/08/20 01:58:36;;;;;;;2.35;1.42;;;22.20;99.90;;;;;;5093038;28;20035;-70
2022/08/20 02:01:03;;;;;;;3.05;1.90;;;22.20;99.90;;;;;;5093000;28;20028;-71
2022/08/20 02:03:29;;;;;;;2.85;1.58;;;22.20;99.90;;;;;;5092351;28;20032;-70
2022/08/20 02:05:57;;;;;;;2.63;1.33;;;22.20;99.90;;;;;;5094227;28;20020;-70
2022/08/20 02:08:23;;;;;;;2.22;1.55;;;22.20;99.90;;;;;;5094489;28;20109;-70
2022/08/20 02:10:49;;;;;;;2.10;1.58;;;22.20;99.90;;;;;;5094732;28;20024;-71
2022/08/20 02:13:15;;;;;;;3.10;1.55;;;22.10;99.90;;;;;;5095010;28;20036;-71
2022/08/20 02:15:40;;;;;;;2.42;1.88;;;22.20;99.90;;;;;;5096141;28;20056;-71
2022/08/20 02:18:10;;;;;;;1.77;1.30;;;22.10;99.90;;;;;;5095629;28;20050;-71
2022/08/20 02:20:37;;;;;;;4.15;1.80;;;22.20;99.90;;;;;;5095565;28;20024;-71
2022/08/20 02:23:04;;;;;;;2.63;1.60;;;22.20;99.90;;;;;;5094181;28;20435;-70
2022/08/20 02:25:32;;;;;;;3.80;1.73;;;22.30;99.90;;;;;;5094467;28;20051;-71
2022/08/20 02:28:01;;;;;;;3.55;2.10;;;22.20;99.90;;;;;;5095471;28;20100;-71
2022/08/20 02:30:32;;;;;;;1.95;1.52;;;22.20;99.90;;;;;;5094334;28;20024;-71
2022/08/20 02:33:02;;;;;;;3.20;1.95;;;22.20;99.90;;;;;;5094073;28;20077;-71
2022/08/20 02:35:28;;;;;;;2.80;1.90;;;22.10;99.90;;;;;;5095516;28;20027;-71
2022/08/20 02:37:55;;;;;;;3.70;2.10;;;22.20;99.90;;;;;;5093345;28;20511;-71
2022/08/20 02:40:25;;;;;;;2.53;1.90;;;22.20;99.90;;;;;;5095232;28;20538;-71
2022/08/20 02:42:50;;;;;;;2.40;1.90;;;22.20;99.90;;;;;;5095169;28;20024;-70
2022/08/20 02:45:17;;;;;;;2.78;1.95;;;22.20;99.90;;;;;;5095474;28;20073;-70
2022/08/20 02:47:44;;;;;;;;;;;22.20;99.90;;;;;;5094190;28;20035;-71
2022/08/20 02:50:10;;;;;;;;;;;22.20;99.90;;;;;;5095491;28;20327;-71
2022/08/20 02:52:36;;;;;;;4.20;2.00;;;22.20;99.90;;;;;;5094811;28;20379;-71
2022/08/20 02:55:02;;;;;;;4.72;2.33;;;22.20;99.90;;;;;;5094301;28;20032;-71
2022/08/20 02:57:28;;;;;;;5.22;1.73;;;22.20;99.90;;;;;;5094884;28;20437;-71
2022/08/20 02:59:53;;;;;;;3.47;2.47;;;22.00;99.90;;;;;;5095361;28;20472;-71
2022/08/20 03:02:20;;;;;;;3.28;2.15;;;22.00;99.90;;;;;;5094915;28;20099;-71
2022/08/20 03:04:45;;;;;;;4.00;2.30;;;22.10;99.90;;;;;;5093393;28;20024;-71
2022/08/20 03:07:11;;;;;;;2.90;2.55;;;22.10;99.90;;;;;;5093495;28;20032;-71
2022/08/20 03:09:38;;;;;;;3.45;2.40;;;22.20;99.90;;;;;;5093510;28;20020;-71
2022/08/20 03:12:06;;;;;;;8.00;2.33;;;22.20;99.90;;;;;;5094709;28;20016;-71
2022/08/20 03:14:32;;;;;;;3.05;2.20;;;22.10;99.90;;;;;;5094788;28;20031;-71
2022/08/20 03:16:58;;;;;;;3.65;2.17;;;22.00;99.90;;;;;;5094719;28;20099;-71
2022/08/20 03:19:24;;;;;;;4.10;2.63;;;22.00;99.90;;;;;;5093639;28;20445;-71
2022/08/20 03:21:49;;;;;;;3.45;2.33;;;22.00;99.90;;;;;;5093293;28;20052;-71
2022/08/20 03:24:15;;;;;;;3.38;2.10;;;21.90;99.90;;;;;;5094894;28;20385;-71
2022/08/20 03:26:41;;;;;;;2.63;2.30;;;21.90;99.90;;;;;;5094528;28;20039;-71
2022/08/20 03:29:06;;;;;;;4.50;2.38;;;21.90;99.90;;;;;;5095749;28;20158;-71
2022/08/20 03:31:32;;;;;;;5.38;2.30;;;21.90;99.90;;;;;;5094415;28;20028;-71
2022/08/20 03:33:58;;;;;;;3.33;2.47;;;21.90;99.90;;;;;;5095117;28;20028;-71
2022/08/20 03:36:26;;;;;;;4.15;2.33;;;21.80;99.90;;;;;;5094300;28;20020;-71
2022/08/20 03:38:51;;;;;;;3.22;2.45;;;21.80;99.90;;;;;;5095245;28;20024;-71
2022/08/20 03:41:17;;;;;;;3.28;2.80;;;21.90;99.90;;;;;;5096776;28;20099;-71
2022/08/20 03:43:43;;;;;;;;;;;21.90;99.90;;;;;;5094673;28;20024;-71
2022/08/20 03:46:09;;;;;;;3.47;2.60;;;21.90;99.90;;;;;;5092791;28;19904;-71
2022/08/20 03:48:34;;;;;;;3.72;2.53;;;22.00;99.90;;;;;;5092645;28;20085;-71
2022/08/20 03:51:00;;;;;;;3.45;2.85;;;21.90;99.90;;;;;;5093775;28;20103;-71
2022/08/20 03:53:30;;;;;;;5.53;3.00;;;22.00;99.90;;;;;;5092248;28;20425;-70
2022/08/20 03:55:59;;;;;;;3.15;2.60;;;22.00;99.90;;;;;;5093810;28;20079;-71
2022/08/20 03:58:27;;;;;;;3.75;2.67;;;21.90;99.90;;;;;;5093914;28;20024;-70
2022/08/20 04:00:54;;;;;;;10.90;4.18;;;21.80;99.90;;;;;;5093784;28;20020;-71
2022/08/20 04:03:21;;;;;;;3.13;2.45;;;21.80;99.90;;;;;;5093505;28;20028;-71
2022/08/20 04:05:46;;;;;;;6.55;2.85;;;21.80;99.90;;;;;;5093546;28;20024;-71
2022/08/20 04:08:19;;;;;;;3.08;2.75;;;21.80;99.90;;;;;;5092324;28;20035;-71
2022/08/20 04:10:46;;;;;;;5.70;3.00;;;21.80;99.90;;;;;;5093506;28;20020;-71
2022/08/20 04:13:13;;;;;;;3.60;2.85;;;21.70;99.90;;;;;;5093319;28;20490;-71
2022/08/20 04:15:38;;;;;;;3.95;3.05;;;21.70;99.90;;;;;;5093418;28;20039;-71
2022/08/20 04:18:07;;;;;;;4.07;2.83;;;21.70;99.90;;;;;;5093572;28;20028;-70
2022/08/20 04:20:34;;;;;;;3.80;2.70;;;21.80;99.90;;;;;;5093347;28;20407;-70
2022/08/20 04:23:00;;;;;;;4.53;3.22;;;21.70;99.90;;;;;;5093219;28;20039;-70
2022/08/20 04:25:32;;;;;;;4.45;3.15;;;21.70;99.90;;;;;;5092102;28;20077;-70
2022/08/20 04:27:59;;;;;;;3.83;3.15;;;21.60;99.90;;;;;;5091951;28;20031;-70
2022/08/20 04:30:25;;;;;;;4.43;3.10;;;21.70;99.90;;;;;;5091870;28;20025;-70
2022/08/20 04:32:51;;;;;;;5.93;3.00;;;21.70;99.90;;;;;;5093167;28;20024;-70
2022/08/20 04:35:17;;;;;;;4.05;3.13;;;21.70;99.90;;;;;;5093402;28;20097;-70
2022/08/20 04:37:47;;;;;;;5.35;2.72;;;21.60;99.90;;;;;;5091769;28;20036;-69
2022/08/20 04:43:03;;;;;;;4.78;3.38;;;21.60;99.90;;;;;;5094180;28;20401;-71
2022/08/20 04:45:29;;;;;;;4.43;3.50;;;21.60;99.90;;;;;;5093167;28;20023;-71
2022/08/20 04:47:55;;;;;;;5.35;3.55;;;21.60;99.90;;;;;;5091701;28;20028;-71
2022/08/20 04:50:21;;;;;;;4.35;3.90;;;21.60;99.90;;;;;;5092787;28;20457;-70
2022/08/20 04:52:48;;;;;;;6.55;3.53;;;21.50;99.90;;;;;;5092708;28;20035;-70
2022/08/20 04:55:16;;;;;;;5.07;3.45;;;21.60;99.90;;;;;;5091607;28;20493;-70
2022/08/20 04:57:42;;;;;;;4.40;3.42;;;21.40;99.90;;;;;;5093097;28;20114;-70
2022/08/20 05:00:13;;;;;;;4.22;3.33;;;21.60;99.90;;;;;;5092762;28;20024;-70
2022/08/20 05:02:38;;;;;;;6.05;3.30;;;21.50;99.90;;;;;;5092854;28;20392;-71
2022/08/20 05:05:08;;;;;;;4.50;3.40;;;21.60;99.90;;;;;;5092909;28;20020;-71
2022/08/20 05:07:40;;;;;;;4.70;3.35;;;21.50;99.90;;;;;;5091625;28;20056;-71
2022/08/20 05:10:07;;;;;;;6.15;3.15;;;21.40;99.90;;;;;;5092689;28;20031;-70
2022/08/20 05:12:33;;;;;;;8.15;3.50;;;21.40;99.90;;;;;;5092652;28;20031;-71
2022/08/20 05:14:59;;;;;;;6.00;3.35;;;21.30;99.90;;;;;;5091194;28;20016;-71
2022/08/20 05:17:24;;;;;;;4.45;3.22;;;21.30;99.90;;;;;;5092785;28;20059;-71
2022/08/20 05:19:51;;;;;;;5.07;3.65;;;21.20;99.90;;;;;;5092555;28;20030;-71
2022/08/20 05:22:17;;;;;;;4.57;3.47;;;21.20;99.90;;;;;;5093642;28;20548;-71
2022/08/20 05:24:43;;;;;;;5.57;3.10;;;21.20;99.90;;;;;;5092809;28;20119;-71
2022/08/20 05:27:09;;;;;;;4.53;3.28;;;21.10;99.90;;;;;;5092940;28;20021;-71
2022/08/20 05:29:34;;;;;;;6.32;3.78;;;21.20;99.90;;;;;;5093309;28;20354;-70
2022/08/20 05:32:01;;;;;;;4.47;3.08;;;21.20;99.90;;;;;;5091446;28;20119;-69
2022/08/20 05:34:27;;;;;;;5.60;3.90;;;21.20;99.90;;;;;;5092334;28;20411;-70
2022/08/20 05:36:52;;;;;;;4.63;3.47;;;21.30;99.90;;;;;;5092438;28;20031;-70
2022/08/20 05:39:20;;;;;;;4.80;3.38;;;21.40;99.90;;;;;;5092378;28;20438;-70
2022/08/20 05:41:48;;;;;;;6.00;3.50;;;21.60;99.90;;;;;;5091776;28;20024;-70
2022/08/20 05:44:14;;;;;;;3.97;3.53;;;21.70;99.90;;;;;;5096833;28;20024;-70
2022/08/20 05:46:42;;;;;;;3.30;3.00;;;21.70;99.90;;;;;;5096930;28;20126;-70
2022/08/20 05:49:09;;;;;;;4.53;3.00;;;21.70;99.90;;;;;;5097759;28;20028;-71
2022/08/20 05:51:35;;;;;;;3.22;2.88;;;21.70;99.90;;;;;;5096513;28;20016;-72
2022/08/20 05:54:02;;;;;;;3.97;3.50;;;21.80;99.90;;;;;;5094685;28;20058;-71
2022/08/20 05:56:29;;;;;;;4.63;2.90;;;21.70;99.90;;;;;;5096088;28;20091;-71
2022/08/20 05:58:55;;;;;;;4.43;3.10;;;21.80;99.90;;;;;;5095684;28;20443;-71
2022/08/20 06:01:21;;;;;;;5.38;3.28;;;21.90;99.90;;;;;;5096865;28;20492;-71
2022/08/20 06:06:31;;;;;;;5.63;3.47;;;22.20;99.90;;;;;;5096011;28;20043;-70
2022/08/20 06:08:56;;;;;;;3.80;3.05;;;22.30;99.90;;;;;;5095828;28;20473;-70
2022/08/20 06:11:22;;;;;;;6.05;3.22;;;22.30;99.90;;;;;;5095006;28;20103;-70
2022/08/20 06:13:48;;;;;;;6.72;3.40;;;22.30;99.90;;;;;;5094618;28;20016;-70
2022/08/20 06:16:13;;;;;;;5.45;3.17;;;22.40;99.90;;;;;;5095830;28;20032;-71
2022/08/20 06:18:39;;;;;;;4.65;3.20;;;22.50;99.90;;;;;;5094132;28;20031;-69
2022/08/20 06:21:05;;;;;;;4.07;2.80;;;22.50;99.90;;;;;;5095661;28;20036;-70
2022/08/20 06:23:30;;;;;;;3.90;3.45;;;22.50;99.90;;;;;;5095229;28;20016;-71
2022/08/20 06:25:56;;;;;;;5.03;2.92;;;22.50;99.90;;;;;;5095624;28;20085;-70
2022/08/20 06:28:22;;;;;;;5.32;3.50;;;22.40;99.90;;;;;;5095496;28;20028;-70
2022/08/20 06:30:47;;;;;;;;;;;22.30;99.90;;;;;;5095707;28;20107;-70
2022/08/20 06:33:13;;;;;;;5.75;3.63;;;22.30;99.90;;;;;;5094048;28;19943;-70
2022/08/20 06:35:39;;;;;;;4.05;3.10;;;22.30;99.90;;;;;;5095143;28;20103;-70
2022/08/20 06:38:04;;;;;;;4.88;3.30;;;22.30;99.90;;;;;;5095424;28;20538;-70
2022/08/20 06:40:32;;;;;;;4.35;3.25;;;22.30;99.90;;;;;;5095204;28;20028;-70
2022/08/20 06:42:58;;;;;;;4.75;3.20;;;22.20;99.90;;;;;;5093419;28;20052;-70
2022/08/20 06:45:27;;;;;;;4.03;2.80;;;22.20;99.90;;;;;;5094945;28;20112;-69
2022/08/20 06:47:56;;;;;;;3.90;2.83;;;22.40;99.90;;;;;;5095204;28;20039;-69
2022/08/20 06:50:25;;;;;;;4.97;2.85;;;22.40;99.90;;;;;;5094981;28;20472;-69
2022/08/20 06:52:51;;;;;;;6.18;3.00;;;22.40;99.90;;;;;;5094497;28;20039;-69
2022/08/20 06:55:17;;;;;;;3.75;2.72;;;22.40;99.90;;;;;;5094015;28;20024;-70
2022/08/20 06:57:43;;;;;;;4.97;3.33;;;22.30;99.90;;;;;;5094933;28;20062;-70
2022/08/20 07:00:13;;;;;;;5.38;3.10;;;22.30;99.90;;;;;;5094903;28;20065;-69
2022/08/20 07:02:39;;;;;;;9.00;3.72;;;22.30;99.90;;;;;;5094776;28;20078;-70
2022/08/20 07:05:06;;;;;;;4.18;3.10;;;22.40;99.90;;;;;;5094937;28;20028;-71
2022/08/20 07:07:32;;;;;;;5.80;3.60;;;22.70;99.90;;;;;;5093546;28;20020;-70
2022/08/20 07:09:58;;;;;;;;;;;22.90;99.90;;;;;;5094403;28;20024;-70
2022/08/20 07:12:24;;;;;;;3.53;2.40;;;23.40;99.90;;;;;;5094679;28;20320;-69
2022/08/20 07:14:49;;;;;;;3.80;2.58;;;23.80;99.90;;;;;;5094335;28;20046;-69
2022/08/20 07:17:15;;;;;;;3.80;2.35;;;23.80;99.90;;;;;;5094737;28;20028;-70
2022/08/20 07:19:40;;;;;;;3.40;2.80;;;23.80;99.90;;;;;;5094612;28;20081;-70
2022/08/20 07:22:07;;;;;;;;;;;23.60;99.90;;;;;;5093946;28;20020;-70
2022/08/20 07:24:32;;;;;;;3.00;2.05;;;23.70;99.90;;;;;;5094432;28;19908;-70
2022/08/20 07:26:58;;;;;;;4.65;2.33;;;23.80;99.90;;;;;;5093224;28;20185;-70
2022/08/20 07:32:33;;;;;;;;;;;24.10;99.90;;;;;;5094796;28;20031;-70
2022/08/20 07:34:54;;;;;;;2.55;1.77;;;24.00;99.90;;;;;;5094202;28;20051;-69
2022/08/20 07:37:22;;;;;;;3.60;2.15;;;24.10;99.90;;;;;;5094408;28;20388;-69
2022/08/20 07:39:49;;;;;;;5.43;2.05;;;24.40;99.90;;;;;;5094079;28;20050;-70
2022/08/20 07:42:14;;;;;;;4.07;1.90;;;24.50;99.90;;;;;;5092600;28;20373;-69
2022/08/20 07:44:40;;;;;;;2.35;1.88;;;24.60;99.90;;;;;;5094409;28;20020;-69
2022/08/20 07:47:05;;;;;;;;;;;24.90;99.90;;;;;;5093340;28;20024;-70
2022/08/20 07:49:31;;;;;;;3.15;2.33;;;24.90;99.90;;;;;;5092596;28;20250;-70
2022/08/20 07:51:57;;;;;;;;;;;25.20;99.90;;;;;;5092673;28;20384;-70
2022/08/20 07:54:23;;;;;;;2.85;1.98;;;25.30;99.90;;;;;;5094269;28;19935;-70
2022/08/20 07:56:48;;;;;;;;;;;25.20;99.90;;;;;;5092864;28;20032;-70
2022/08/20 07:59:14;;;;;;;3.15;1.95;;;25.20;99.90;;;;;;5093751;28;19904;-69
2022/08/20 08:01:39;;;;;;;;;;;25.20;99.90;;;;;;5093968;28;20051;-70
2022/08/20 08:04:05;;;;;;;2.53;2.08;;;24.80;99.90;;;;;;5093479;28;19963;-70
2022/08/20 08:06:30;;;;;;;;;;;24.60;99.90;;;;;;5093633;28;20039;-70
2022/08/20 08:09:01;;;;;;;2.25;1.85;;;24.50;99.90;;;;;;5093656;28;19904;-68
2022/08/20 08:11:27;;;;;;;6.18;2.40;;;24.30;99.90;;;;;;5093819;28;20020;-69
2022/08/20 08:13:53;;;;;;;3.05;2.63;;;24.10;99.90;;;;;;5092626;28;20024;-68
2022/08/20 08:16:18;;;;;;;;;;;23.80;99.90;;;;;;5094645;28;20051;-70
2022/08/20 08:18:48;;;;;;;5.05;2.42;;;23.60;99.90;;;;;;5094457;28;19923;-71
2022/08/20 08:21:16;;;;;;;3.20;1.85;;;23.30;99.90;;;;;;5096793;28;20020;-71
2022/08/20 08:23:43;;;;;;;3.35;1.85;;;23.10;99.90;;;;;;5095029;28;20402;-71
2022/08/20 08:26:10;;;;;;;2.80;1.88;;;22.90;99.90;;;;;;5094858;28;20048;-71
2022/08/20 08:28:38;;;;;;;5.03;2.13;;;22.70;99.90;;;;;;5094228;28;20023;-71
2022/08/20 08:31:04;;;;;;;3.22;2.03;;;22.60;99.90;;;;;;5094278;28;20016;-71
2022/08/20 08:33:31;;;;;;;2.92;2.03;;;22.60;99.90;;;;;;5097815;28;20082;-71
2022/08/20 08:36:06;;;;;;;4.18;2.40;;;22.50;99.90;;;;;;5095223;28;20031;-71
2022/08/20 08:38:33;;;;;;;3.45;1.90;;;22.70;99.90;;;;;;5095721;28;20054;-71
2022/08/20 08:41:11;;;;;;;3.50;1.98;;;22.90;99.90;;;;;;5094616;28;20157;-71
2022/08/20 08:43:37;;;;;;;2.97;2.30;;;23.10;99.90;;;;;;5101245;28;20384;-71
2022/08/20 08:46:10;;;;;;;3.15;2.28;;;23.20;99.90;;;;;;5099237;28;20453;-70
2022/08/20 08:48:42;;;;;;;4.93;2.58;;;23.30;99.90;;;;;;5097547;28;20035;-69
2022/08/20 08:51:11;;;;;;;2.55;2.30;;;23.30;99.90;;;;;;5097196;28;20016;-69
2022/08/20 08:53:49;;;;;;;4.72;2.50;;;23.10;99.90;;;;;;5097737;28;20081;-69
2022/08/20 08:56:15;;;;;;;2.85;2.10;;;23.10;99.90;;;;;;5102278;28;20213;-69
2022/08/20 08:58:42;;;;;;;;;;;23.20;99.90;;;;;;5102511;28;20036;-70
2022/08/20 09:01:15;;;;;;;3.88;2.35;;;23.20;99.90;;;;;;5095033;28;19904;-69
2022/08/20 09:03:43;;;;;;;3.05;1.90;;;23.10;99.90;;;;;;5096178;28;20040;-70
2022/08/20 09:06:15;;;;;;;2.92;1.70;;;23.10;99.90;;;;;;5093806;28;20082;-70
2022/08/20 09:08:51;;;;;;;2.47;2.10;;;23.10;99.90;;;;;;5095350;28;20115;-70
2022/08/20 09:11:19;;;;;;;4.63;1.70;;;23.00;99.90;;;;;;5091554;28;20020;-69
2022/08/20 09:13:44;;;;;;;2.70;1.65;;;22.90;99.90;;;;;;5092469;28;20043;-68
2022/08/20 09:16:11;;;;;;;3.00;1.50;;;23.00;99.90;;;;;;5093786;28;20028;-68
2022/08/20 09:18:37;;;;;;;2.00;1.52;;;23.10;99.90;;;;;;5095749;28;20032;-68
2022/08/20 09:21:03;;;;;;;4.28;1.88;;;23.10;99.90;;;;;;5096961;28;20024;-68
2022/08/20 09:23:29;;;;;;;;;;;23.30;99.90;;;;;;5097196;28;20032;-68
2022/08/20 09:25:54;;;;;;;3.35;1.80;;;23.40;99.90;;;;;;5097138;28;19995;-67
2022/08/20 09:28:20;;;;;;;3.90;1.92;;;23.40;99.90;;;;;;5097110;28;20134;-71
2022/08/20 09:30:45;;;;;;;;;;;23.40;99.90;;;;;;5096169;28;20039;-70
2022/08/20 09:33:11;;;;;;;1.95;1.50;;;23.60;99.90;;;;;;5097889;28;19995;-71
2022/08/20 09:35:37;;;;;;;;;;;23.80;99.90;;;;;;5098844;28;20074;-70
2022/08/20 09:38:02;;;;;;;2.63;1.48;;;24.20;99.90;;;;;;5097246;28;19904;-70
2022/08/20 09:40:28;;;;;;;;;;;24.50;99.90;;;;;;5099806;28;20469;-70
2022/08/20 09:42:54;;;;;;;2.17;1.48;;;25.10;99.90;;;;;;5103378;28;19917;-71
2022/08/20 09:45:19;;;;;;;;;;;27.20;99.90;;;;;;5101696;28;20024;-70
2022/08/20 09:47:45;;;;;;;1.30;0.98;;;30.30;97.60;;;;;;5098712;28;19908;-71
2022/08/20 09:50:10;;;;;;;1.88;1.08;;;32.40;92.70;;;;;;5097679;28;20491;-70
2022/08/20 09:52:41;;;;;;;1.92;1.10;;;33.90;90.20;;;;;;5095963;28;20024;-69
2022/08/20 09:55:35;;;;;;;1.45;1.23;;;34.00;87.60;;;;;;5096787;28;20066;-69
2022/08/20 09:58:08;;;;;;;1.70;1.00;;;33.80;86.60;;;;;;5095238;28;20024;-69
2022/08/20 10:00:34;;;;;;;1.50;1.15;;;36.00;81.90;;;;;;5097038;28;20405;-67
2022/08/20 10:03:00;;;;;;;0.75;0.70;;;35.50;80.00;;;;;;5095992;28;20109;-68
2022/08/20 10:05:26;;;;;;;1.85;0.90;;;36.40;78.30;;;;;;5095894;28;20052;-69
2022/08/20 10:07:52;;;;;;;1.35;0.95;;;36.40;76.80;;;;;;5095957;28;20054;-68
2022/08/20 10:10:17;;;;;;;1.08;0.88;;;37.80;75.30;;;;;;5095943;28;20021;-69
2022/08/20 10:12:45;;;;;;;1.17;1.08;;;38.10;72.50;;;;;;5094420;28;20027;-69
2022/08/20 10:15:11;;;;;;;2.10;1.10;;;36.80;73.90;;;;;;5096188;28;20028;-69
2022/08/20 10:17:40;;;;;;;1.52;0.90;;;36.10;74.00;;;;;;5095093;28;20183;-69
2022/08/20 10:20:07;;;;;;;1.20;1.10;;;34.00;76.90;;;;;;5095718;28;20028;-69
2022/08/20 10:22:33;;;;;;;4.30;1.50;;;31.90;81.50;;;;;;5094187;28;20055;-70
2022/08/20 10:24:59;;;;;;;2.13;1.02;;;30.40;85.50;;;;;;5094228;28;20040;-68
2022/08/20 10:27:25;;;;;;;3.22;0.80;;;29.70;88.30;;;;;;5096041;28;20024;-68
2022/08/20 10:29:50;;;;;;;0.88;0.80;;;29.00;90.00;;;;;;5095334;28;20025;-71
2022/08/20 10:32:16;;;;;;;1.60;0.90;;;28.80;91.10;;;;;;5095533;28;20030;-70
2022/08/20 10:34:43;;;;;;;1.35;0.90;;;28.70;91.30;;;;;;5095556;28;20110;-70
2022/08/20 10:37:18;;;;;;;1.52;1.05;;;28.90;91.00;;;;;;5095421;28;20024;-71
2022/08/20 10:39:44;;;;;;;1.13;0.73;;;29.20;90.70;;;;;;5093945;28;20028;-71
2022/08/20 10:42:10;;;;;;;2.05;1.00;;;29.10;90.30;;;;;;5095090;28;20020;-71
2022/08/20 10:44:36;;;;;;;1.15;0.70;;;29.10;90.50;;;;;;5095356;28;20035;-71
2022/08/20 10:47:28;;;;;;;1.08;0.63;;;29.10;90.30;;;;;;5095040;28;20020;-70
2022/08/20 10:49:55;;;;;;;1.75;0.90;;;29.40;90.20;;;;;;5095563;28;20023;-70
2022/08/20 10:52:22;;;;;;;3.53;0.80;;;29.60;89.80;;;;;;5095291;28;20028;-70
2022/08/20 10:54:47;;;;;;;2.08;0.90;;;29.60;90.00;;;;;;5093999;28;20035;-71
2022/08/20 10:57:17;;;;;;;1.00;0.90;;;28.90;90.30;;;;;;5093800;28;20016;-70
2022/08/20 10:59:45;;;;;;;1.73;1.10;;;28.10;91.70;;;;;;5094943;28;20020;-70
2022/08/20 11:02:11;;;;;;;1.50;0.95;;;27.50;92.50;;;;;;5094785;28;20028;-70
2022/08/20 11:04:37;;;;;;;1.38;0.80;;;27.00;93.30;;;;;;5094787;28;20081;-70
2022/08/20 11:07:30;;;;;;;0.88;0.80;;;27.00;93.70;;;;;;5094016;28;20024;-70
2022/08/20 11:09:56;;;;;;;2.25;1.10;;;27.00;93.60;;;;;;5092182;28;20036;-70
2022/08/20 11:12:22;;;;;;;1.58;1.10;;;27.20;93.60;;;;;;5094545;28;20016;-71
2022/08/20 11:14:49;;;;;;;;;;;27.20;93.70;;;;;;5095049;28;20112;-70
2022/08/20 11:17:30;;;;;;;1.10;0.90;;;27.20;93.80;;;;;;5094570;28;20281;-71
2022/08/20 11:19:57;;;;;;;0.90;0.80;;;27.30;93.70;;;;;;5094803;28;20115;-71
2022/08/20 11:22:23;;;;;;;1.70;1.00;;;27.20;93.60;;;;;;5093054;28;20024;-71
2022/08/20 11:24:49;;;;;;;2.90;0.90;;;27.20;93.30;;;;;;5094448;28;20473;-71
2022/08/20 11:27:18;;;;;;;;;;;27.20;93.20;;;;;;5094725;28;20101;-71
2022/08/20 11:29:44;;;;;;;1.55;0.90;;;27.60;92.80;;;;;;5094202;28;20366;-70
2022/08/20 11:32:10;;;;;;;1.15;0.82;;;27.80;92.50;;;;;;5094333;28;20019;-70
2022/08/20 11:34:35;;;;;;;2.72;0.88;;;27.90;92.50;;;;;;5094111;28;20055;-71
2022/08/20 11:37:01;;;;;;;2.28;1.10;;;27.90;92.70;;;;;;5094311;28;20059;-71
2022/08/20 11:39:27;;;;;;;2.55;0.95;;;27.60;92.90;;;;;;5094250;28;20024;-70
2022/08/20 11:41:52;;;;;;;1.67;0.80;;;27.40;93.30;;;;;;5092220;28;20440;-70
2022/08/20 11:44:18;;;;;;;0.98;0.70;;;27.40;92.90;;;;;;5093038;28;20070;-70
2022/08/20 11:46:43;;;;;;;2.88;0.70;;;27.30;92.50;;;;;;5094064;28;20103;-67
2022/08/20 11:49:09;;;;;;;1.50;0.50;;;27.20;92.40;;;;;;5093980;28;20362;-68
2022/08/20 11:51:36;;;;;;;;;;;27.10;92.30;;;;;;5094330;28;20035;-66
2022/08/20 11:54:02;;;;;;;0.90;0.70;;;27.10;92.30;;;;;;5094671;28;19912;-66
2022/08/20 11:56:28;;;;;;;1.65;0.57;;;27.40;92.10;;;;;;5093781;28;20110;-68
2022/08/20 11:58:54;;;;;;;1.48;0.70;;;27.40;91.80;;;;;;5093695;28;20078;-68
2022/08/20 12:01:20;;;;;;;0.52;0.52;;;27.40;91.60;;;;;;5093652;28;20116;-68
2022/08/20 12:03:46;;;;;;;1.95;0.63;;;27.50;91.00;;;;;;5093461;28;20039;-69
2022/08/20 12:06:11;;;;;;;0.68;0.50;;;27.60;90.80;;;;;;5092594;28;20020;-68
2022/08/20 12:08:37;;;;;;;0.93;0.70;;;27.60;90.60;;;;;;5093590;28;20028;-69
2022/08/20 12:11:02;;;;;;;1.63;0.50;;;27.50;90.90;;;;;;5093584;28;20028;-69
2022/08/20 12:13:32;;;;;;;0.98;0.60;;;27.40;91.10;;;;;;5093633;28;20415;-68
2022/08/20 12:15:58;;;;;;;1.05;0.65;;;27.30;91.20;;;;;;5093668;28;20031;-69
2022/08/20 12:18:23;;;;;;;0.75;0.70;;;27.50;91.20;;;;;;5093613;28;20020;-68
2022/08/20 12:20:49;;;;;;;0.80;0.60;;;27.30;91.10;;;;;;5093537;28;20093;-69
2022/08/20 12:23:14;;;;;;;0.65;0.55;;;27.30;91.40;;;;;;5093190;28;20042;-68
2022/08/20 12:25:40;;;;;;;0.57;0.57;;;27.20;91.10;;;;;;5093252;28;20051;-69
2022/08/20 12:28:07;;;;;;;0.90;0.50;;;27.00;91.20;;;;;;5093102;28;20106;-69
2022/08/20 12:30:33;;;;;;;0.75;0.50;;;27.00;90.90;;;;;;5092938;28;20031;-68
2022/08/20 12:32:59;;;;;;;0.80;0.50;;;27.00;91.10;;;;;;5092973;28;20362;-69
2022/08/20 12:35:25;;;;;;;1.38;0.43;;;27.10;90.90;;;;;;5092914;28;20031;-68
2022/08/20 12:37:51;;;;;;;2.20;0.60;;;27.40;90.30;;;;;;5091960;28;20495;-69
2022/08/20 12:40:21;;;;;;;0.60;0.40;;;27.40;90.20;;;;;;5092741;28;20496;-69
2022/08/20 12:42:47;;;;;;;0.50;0.45;;;27.40;89.40;;;;;;5091850;28;20027;-69
2022/08/20 12:45:14;;;;;;;1.75;0.60;;;27.40;89.60;;;;;;5092791;28;20524;-69
2022/08/20 12:47:42;;;;;;;2.13;0.60;;;27.40;89.70;;;;;;5092348;28;20101;-69
2022/08/20 12:50:12;;;;;;;1.70;0.57;;;27.50;88.70;;;;;;5092666;28;20016;-69
2022/08/20 12:52:38;;;;;;;1.92;0.57;;;27.70;88.70;;;;;;5092415;28;20107;-70
2022/08/20 12:55:06;;;;;;;1.90;0.40;;;27.70;88.20;;;;;;5092440;28;20433;-69
2022/08/20 12:57:36;;;;;;;1.15;0.70;;;27.80;88.30;;;;;;5092687;28;20024;-70
2022/08/20 13:00:09;;;;;;;2.03;0.73;;;27.90;87.90;;;;;;5092997;28;20323;-70
2022/08/20 13:02:36;;;;;;;1.75;0.57;;;28.00;86.90;;;;;;5092581;28;20091;-69
2022/08/20 13:05:02;;;;;;;1.30;0.50;;;28.00;86.20;;;;;;5091363;28;20030;-68